Terminal Aerodrome Forecast
Issued by NWS

Home | Current Version | Previous Version | Text Only | Print | Product List | Glossary On
Versions: 1 2 3 4 5 6 7 8 9 10 11 12 13 14 15 16 17 18
000
FTUS43 KGRR 291038 AAD
TAFMKG
TAF AMD
KMKG 291038Z 2911/3006 05010KT P6SM -RA BKN050 BKN070 OVC120
      TEMPO 2911/2914 4SM SHRA BR OVC025
     FM291500 07009KT P6SM VCSH BKN040 BKN100
     FM300200 07007KT P6SM BKN050=

USA.gov is the U.S. government's official web portal to all federal, state and local government web resources and services.